Briefing drone pour Deols

Rechercher une autre localisation

Conditions de vol :


Nous sommes le : Lundi 28 septembre 2020
Il est 16:33 UTC (18:33 LT)

Lever de soleil : 05:22 UTC (07:22 LT)
Coucher de soleil : 18:05 UTC (20:05 LT)

Météo

L'essentiel des conditions de vol

VIGILANCE MÉTÉO FRANCE - Indre (36)
Pas de vigilances particulieres
METAR de LFLX
LFLX 281600Z AUTO 28013KT 240V300 CAVOK 17/07 Q1016 NOSIG

Date d'émission: 28/09/2020
Heure d'émission: 16:00 UTC
Vent: 280° (variable du 240° au 300°) pour 13 KT (24 km/h)
Visibilité horizontale: > 10 km
Plafond : Plafond et visibilité OK (CAVOK)
Température: 17 °C
Point de rosée: 7 °C
Humidité: 52%
Pression (QNH): 1016 hPa
Conditions: Pas de changement dans les 2 heures (NOSIG)
TAF de LFLX
LFLX 281100Z 2812/2918 27008KT 9999 BKN030

Conditions prévues :

Heure d'émission : Bulletin éffectué le 28 à 12:00 UTC
Prévision : Valide du 28 a 12:00 UTC au 29 a 18:00 UTC
Vent : 270° pour 8 KT (15 km/h)
Visibilité : > 10 km
Nuages : Nuages morcelés à 3000ft (914 m)
WEBCAM POUR DEOLS

Réglementation

Voler en sécurité

CARTES AERONAUTIQUE 1/500.000
CARTES VAC (LFLX)
SUP AIP




Chargement des AIP...
NOTAM (DEOLS + Terrain à proximité / FIR )




Chargement des NOTAMS...
CONTACT PREFECTURE 36


Avertissement : Les données mises à disposition sont indicatives. Oxygène Drone ne pourra être tenu responsable de dégâts causés aux biens et aux personnes.